createdAt,value
2022-11-30T00:00:00.840Z,8.41
2022-11-30T00:01:00.818Z,8.38
2022-11-30T00:02:00.951Z,8.42
2022-11-30T00:03:01.043Z,8.42
2022-11-30T00:04:00.781Z,8.44
2022-11-30T00:05:00.769Z,8.46
2022-11-30T00:06:00.751Z,8.48
2022-11-30T00:07:00.758Z,8.48
2022-11-30T00:08:00.839Z,8.49
2022-11-30T00:09:00.739Z,8.49
2022-11-30T00:10:00.753Z,8.49
2022-11-30T00:11:00.726Z,8.45
2022-11-30T00:12:00.694Z,8.48
2022-11-30T00:13:00.679Z,8.48
2022-11-30T00:14:00.685Z,8.48
2022-11-30T00:15:00.646Z,8.48
2022-11-30T00:16:00.662Z,8.45
2022-11-30T00:17:00.721Z,8.45
2022-11-30T00:18:00.653Z,8.44
2022-11-30T00:19:00.632Z,8.45
2022-11-30T00:20:00.612Z,8.44
2022-11-30T00:21:00.606Z,8.42
2022-11-30T00:22:00.624Z,8.45
2022-11-30T00:23:00.558Z,8.45
2022-11-30T00:24:00.608Z,8.44
2022-11-30T00:25:00.551Z,8.44
2022-11-30T00:26:00.539Z,8.42
2022-11-30T00:27:00.563Z,8.42
2022-11-30T00:28:00.541Z,8.42
2022-11-30T00:29:00.515Z,8.42
2022-11-30T00:30:00.512Z,8.42
2022-11-30T00:31:00.565Z,8.44
2022-11-30T00:32:01.330Z,8.44
2022-11-30T00:33:00.473Z,8.45
2022-11-30T00:34:00.491Z,8.44
2022-11-30T00:35:00.440Z,8.44
2022-11-30T00:36:00.482Z,8.42
2022-11-30T00:37:00.419Z,8.38
2022-11-30T00:38:00.420Z,8.37
2022-11-30T00:39:00.407Z,8.38
2022-11-30T00:40:00.393Z,8.42
2022-11-30T00:41:00.375Z,8.38
2022-11-30T00:42:00.388Z,8.41
2022-11-30T00:43:00.372Z,8.38
2022-11-30T00:44:00.370Z,8.37
2022-11-30T00:45:00.408Z,8.41
2022-11-30T00:46:00.401Z,8.36
2022-11-30T00:47:00.323Z,8.36
2022-11-30T00:48:00.336Z,8.36
2022-11-30T00:49:00.295Z,8.37
2022-11-30T00:50:00.312Z,8.37
2022-11-30T00:51:00.267Z,8.37
2022-11-30T00:52:00.265Z,8.37
2022-11-30T00:53:00.238Z,8.37
2022-11-30T00:54:00.265Z,8.36
2022-11-30T00:55:03.845Z,8.37
2022-11-30T00:56:00.290Z,8.34
2022-11-30T00:57:00.203Z,8.36
2022-11-30T00:58:00.210Z,8.34
2022-11-30T00:59:00.182Z,8.36
2022-11-30T01:00:00.202Z,8.36
2022-11-30T01:01:00.312Z,8.36
2022-11-30T01:02:00.163Z,8.34
2022-11-30T01:03:00.148Z,8.34
2022-11-30T01:04:00.160Z,8.33
2022-11-30T01:05:00.148Z,8.31
2022-11-30T01:06:00.152Z,8.30
2022-11-30T01:07:00.103Z,8.30
2022-11-30T01:08:00.206Z,8.30
2022-11-30T01:09:00.087Z,8.30
2022-11-30T01:10:00.079Z,8.31
2022-11-30T01:11:00.105Z,8.34
2022-11-30T01:12:00.082Z,8.34
2022-11-30T01:13:00.035Z,8.33
2022-11-30T01:14:00.051Z,8.34
2022-11-30T01:15:00.026Z,8.34
2022-11-30T01:16:00.106Z,8.34
2022-11-30T01:16:59.991Z,8.34
2022-11-30T01:18:00.029Z,8.31
2022-11-30T01:18:59.981Z,8.33
2022-11-30T01:20:00.043Z,8.30
2022-11-30T01:20:59.965Z,8.31
2022-11-30T01:21:59.951Z,8.31
2022-11-30T01:22:59.934Z,8.30
2022-11-30T01:23:59.953Z,8.30
2022-11-30T01:24:59.921Z,8.28
2022-11-30T01:25:59.907Z,8.30
2022-11-30T01:26:59.907Z,8.27
2022-11-30T01:27:59.901Z,8.28
2022-11-30T01:28:59.885Z,8.28
2022-11-30T01:29:59.874Z,8.27
2022-11-30T01:30:59.908Z,8.27
2022-11-30T01:31:59.857Z,8.28
2022-11-30T01:32:59.831Z,8.30
2022-11-30T01:33:59.840Z,8.33
2022-11-30T01:34:59.831Z,8.33
2022-11-30T01:35:59.818Z,8.31
2022-11-30T01:36:59.821Z,8.31
2022-11-30T01:37:59.785Z,8.30
2022-11-30T01:38:59.774Z,8.31
2022-11-30T01:39:59.780Z,8.33
2022-11-30T01:40:59.740Z,8.34
2022-11-30T01:41:59.747Z,8.33
2022-11-30T01:42:59.717Z,8.33
2022-11-30T01:43:59.725Z,8.31
2022-11-30T01:44:59.706Z,8.28
2022-11-30T01:45:59.742Z,8.30
2022-11-30T01:46:59.709Z,8.30
2022-11-30T01:47:59.689Z,8.30
2022-11-30T01:48:59.647Z,8.30
2022-11-30T01:49:59.670Z,8.30
2022-11-30T01:50:59.667Z,8.31
2022-11-30T01:51:59.633Z,8.30
2022-11-30T01:52:59.633Z,8.30
2022-11-30T01:53:59.614Z,8.33
2022-11-30T01:54:59.587Z,8.34
2022-11-30T01:55:59.590Z,8.33
2022-11-30T01:56:59.577Z,8.37
2022-11-30T01:57:59.593Z,8.36
2022-11-30T01:58:59.565Z,8.38
2022-11-30T01:59:59.546Z,8.38
2022-11-30T02:00:59.585Z,8.38
2022-11-30T02:01:59.523Z,8.42
2022-11-30T02:02:59.551Z,8.41
2022-11-30T02:03:59.506Z,8.41
2022-11-30T02:04:59.510Z,8.42
2022-11-30T02:05:59.539Z,8.44
2022-11-30T02:06:59.462Z,8.42
2022-11-30T02:07:59.570Z,8.45
2022-11-30T02:08:59.436Z,8.41
2022-11-30T02:09:59.520Z,8.41
2022-11-30T06:01:02.453Z,8.56
2022-11-30T06:02:03.476Z,8.53
2022-11-30T06:03:03.473Z,8.56
2022-11-30T06:04:07.438Z,8.55
2022-11-30T06:05:03.408Z,8.53
2022-11-30T06:06:03.382Z,8.56
2022-11-30T06:07:03.353Z,8.56
2022-11-30T06:08:03.354Z,8.55
2022-11-30T06:09:03.325Z,8.58
2022-11-30T06:10:03.310Z,8.56
2022-11-30T06:11:03.349Z,8.53
2022-11-30T06:12:03.285Z,8.53
2022-11-30T06:13:03.277Z,8.53
2022-11-30T06:14:03.267Z,8.52
2022-11-30T06:15:03.289Z,8.55
2022-11-30T06:16:03.372Z,8.55
2022-11-30T06:17:03.264Z,8.55
2022-11-30T06:18:03.220Z,8.58
2022-11-30T06:19:03.248Z,8.58
2022-11-30T06:20:03.232Z,8.60
2022-11-30T06:21:03.272Z,8.58
2022-11-30T06:22:03.178Z,8.56
2022-11-30T06:23:03.203Z,8.56
2022-11-30T06:24:03.156Z,8.58
2022-11-30T06:25:03.168Z,8.60
2022-11-30T06:26:03.174Z,8.60
2022-11-30T06:27:03.183Z,8.61
2022-11-30T06:28:03.135Z,8.60
2022-11-30T06:29:03.113Z,8.60
2022-11-30T06:30:03.140Z,8.61
2022-11-30T06:31:03.084Z,8.61
2022-11-30T06:32:03.134Z,8.63
2022-11-30T06:33:03.068Z,8.63
2022-11-30T06:34:03.063Z,8.64
2022-11-30T06:35:03.047Z,8.66
2022-11-30T06:36:03.010Z,8.66
2022-11-30T06:37:03.044Z,8.66
2022-11-30T06:38:02.982Z,8.69
2022-11-30T06:39:02.983Z,8.69
2022-11-30T06:40:07.570Z,8.69
2022-11-30T06:41:02.937Z,8.69
2022-11-30T06:42:02.986Z,8.70
2022-11-30T06:43:02.932Z,8.70
2022-11-30T06:44:02.921Z,8.71
2022-11-30T06:45:02.874Z,8.69
2022-11-30T06:46:02.959Z,8.67
2022-11-30T06:47:02.906Z,8.67
2022-11-30T06:48:02.863Z,8.67
2022-11-30T06:49:02.841Z,8.66
2022-11-30T06:50:02.895Z,8.66
2022-11-30T06:51:02.828Z,8.67
2022-11-30T06:52:02.838Z,8.66
2022-11-30T06:53:02.817Z,8.69
2022-11-30T06:54:02.801Z,8.67
2022-11-30T06:55:02.789Z,8.67
2022-11-30T06:56:08.254Z,8.67
2022-11-30T06:57:02.758Z,8.67
2022-11-30T06:58:02.764Z,8.69
2022-11-30T06:59:02.745Z,8.67
2022-11-30T07:00:02.746Z,8.67
2022-11-30T07:01:02.764Z,8.69
2022-11-30T07:02:08.077Z,8.67
2022-11-30T07:03:02.710Z,8.70
2022-11-30T07:04:02.729Z,8.70
2022-11-30T07:05:02.671Z,8.73
2022-11-30T07:06:02.663Z,8.73
2022-11-30T07:07:02.692Z,8.70
2022-11-30T07:08:02.682Z,8.69
2022-11-30T07:09:02.645Z,8.66
2022-11-30T07:10:02.668Z,8.66
2022-11-30T07:11:02.598Z,8.67
2022-11-30T07:12:02.637Z,8.67
2022-11-30T07:13:02.583Z,8.67
2022-11-30T07:14:02.611Z,8.70
2022-11-30T07:15:02.563Z,8.70
2022-11-30T07:16:02.626Z,8.70
2022-11-30T07:17:02.550Z,8.70
2022-11-30T07:18:02.554Z,8.70
2022-11-30T07:19:02.522Z,8.69
2022-11-30T07:20:02.526Z,8.70
2022-11-30T07:21:02.530Z,8.73
2022-11-30T07:22:02.535Z,8.73
2022-11-30T07:23:02.483Z,8.71
2022-11-30T07:24:02.497Z,8.73
2022-11-30T07:25:02.492Z,8.70
2022-11-30T07:26:02.459Z,8.70
2022-11-30T07:27:02.500Z,8.71
2022-11-30T07:28:02.444Z,8.71
2022-11-30T07:29:02.412Z,8.69
2022-11-30T07:30:02.415Z,8.66
2022-11-30T07:31:02.387Z,8.67
2022-11-30T07:32:02.516Z,8.69
2022-11-30T07:33:02.396Z,8.67
2022-11-30T07:34:02.422Z,8.67
2022-11-30T07:35:02.357Z,8.67
2022-11-30T07:36:02.357Z,8.69
2022-11-30T07:37:02.329Z,8.69
2022-11-30T07:38:08.193Z,8.69
2022-11-30T07:39:02.329Z,8.67
2022-11-30T07:40:02.342Z,8.69
2022-11-30T07:41:02.290Z,8.70
2022-11-30T07:42:02.298Z,8.69
2022-11-30T07:43:02.274Z,8.71
2022-11-30T07:44:02.273Z,8.73
2022-11-30T07:45:02.259Z,8.73
2022-11-30T07:46:02.381Z,8.74
2022-11-30T07:47:02.222Z,8.74
2022-11-30T07:48:02.226Z,8.73
2022-11-30T07:49:02.208Z,8.74
2022-11-30T07:50:02.220Z,8.74
2022-11-30T07:51:02.185Z,8.74
2022-11-30T07:52:02.203Z,8.74
2022-11-30T07:53:02.208Z,8.73
2022-11-30T07:54:02.173Z,8.74
2022-11-30T07:55:02.147Z,8.73
2022-11-30T07:56:02.138Z,8.74
2022-11-30T07:57:02.133Z,8.73
2022-11-30T07:58:02.125Z,8.74
2022-11-30T07:59:02.116Z,8.74
2022-11-30T08:00:02.439Z,8.76
2022-11-30T08:01:02.256Z,8.76
2022-11-30T08:02:02.334Z,8.76
2022-11-30T08:03:02.055Z,8.74
2022-11-30T08:04:02.078Z,8.73
2022-11-30T08:05:02.097Z,8.74
2022-11-30T08:06:02.048Z,8.74
2022-11-30T08:07:02.019Z,8.76
2022-11-30T08:08:02.074Z,8.76
2022-11-30T08:09:02.002Z,8.79
2022-11-30T08:10:02.001Z,8.81
2022-11-30T08:11:02.045Z,8.81
2022-11-30T08:12:01.985Z,8.84
2022-11-30T08:13:01.945Z,8.85
2022-11-30T08:14:01.954Z,8.85
2022-11-30T08:16:01.940Z,8.87
2022-11-30T08:17:01.953Z,8.82
2022-11-30T08:18:01.907Z,8.79
2022-11-30T08:19:01.881Z,8.78
2022-11-30T08:20:01.893Z,8.74
2022-11-30T08:21:01.904Z,8.71
2022-11-30T08:22:01.881Z,8.71
2022-11-30T08:23:01.905Z,8.67
2022-11-30T08:24:01.880Z,8.63
2022-11-30T08:25:01.843Z,8.64
2022-11-30T08:26:01.830Z,8.63
2022-11-30T08:27:01.828Z,8.64
2022-11-30T08:28:01.834Z,8.64
2022-11-30T08:29:01.783Z,8.63
2022-11-30T08:30:01.797Z,8.67
2022-11-30T08:31:01.853Z,8.66
2022-11-30T08:32:01.775Z,8.66
2022-11-30T08:33:01.768Z,8.66
2022-11-30T08:34:01.808Z,8.61
2022-11-30T08:35:01.720Z,8.63
2022-11-30T08:36:01.742Z,8.64
2022-11-30T08:37:01.686Z,8.64
2022-11-30T08:38:01.727Z,8.64
2022-11-30T08:39:01.708Z,8.64
2022-11-30T08:40:01.677Z,8.66
2022-11-30T08:41:01.658Z,8.64
2022-11-30T08:42:01.677Z,8.66
2022-11-30T08:43:01.634Z,8.64
2022-11-30T08:44:01.642Z,8.63
2022-11-30T08:45:02.090Z,8.64
2022-11-30T08:46:01.692Z,8.64
2022-11-30T08:47:01.657Z,8.64
2022-11-30T08:48:01.583Z,8.67
2022-11-30T08:49:20.434Z,8.66
2022-11-30T09:00:54.414Z,8.66
2022-11-30T09:00:59.319Z,8.64
2022-11-30T09:01:59.333Z,8.64
2022-11-30T09:02:59.388Z,8.63
2022-11-30T09:03:59.357Z,8.63
2022-11-30T09:04:59.284Z,8.66
2022-11-30T09:05:59.285Z,8.67
2022-11-30T09:06:59.577Z,8.69
2022-11-30T09:07:59.328Z,8.69
2022-11-30T09:08:59.236Z,8.70
2022-11-30T09:09:59.248Z,8.71
2022-11-30T09:10:59.200Z,8.74
2022-11-30T09:11:59.210Z,8.74
2022-11-30T09:12:59.187Z,8.74
2022-11-30T09:13:59.204Z,8.76
2022-11-30T09:14:59.623Z,8.76
2022-11-30T09:15:59.227Z,8.78
2022-11-30T09:16:59.178Z,8.78
2022-11-30T09:17:59.140Z,8.79
2022-11-30T09:18:59.116Z,8.81
2022-11-30T09:19:59.132Z,8.78
2022-11-30T09:20:59.099Z,8.76
2022-11-30T09:21:59.145Z,8.76
2022-11-30T09:22:59.077Z,8.74
2022-11-30T09:23:59.084Z,8.78
2022-11-30T09:24:59.061Z,8.78
2022-11-30T09:25:59.077Z,8.81
2022-11-30T09:26:59.031Z,8.79
2022-11-30T09:27:59.047Z,8.81
2022-11-30T09:28:59.037Z,8.78
2022-11-30T09:29:59.034Z,8.79
2022-11-30T09:30:59.039Z,8.81
2022-11-30T09:31:59.017Z,8.84
2022-11-30T09:32:58.999Z,8.81
2022-11-30T09:33:58.981Z,8.84
2022-11-30T09:34:58.965Z,8.84
2022-11-30T09:35:58.973Z,8.87
2022-11-30T09:36:58.942Z,8.87
2022-11-30T09:37:58.934Z,8.88
2022-11-30T09:38:58.982Z,8.87
2022-11-30T09:39:58.914Z,8.89
2022-11-30T09:40:58.916Z,8.88
2022-11-30T09:41:58.909Z,8.87
2022-11-30T09:42:58.873Z,8.88
2022-11-30T09:43:58.926Z,8.88
2022-11-30T09:44:58.882Z,8.88
2022-11-30T09:45:58.898Z,8.91
2022-11-30T09:46:58.834Z,8.92
2022-11-30T09:47:58.836Z,8.92
2022-11-30T09:48:58.804Z,8.92
2022-11-30T09:49:58.828Z,8.92
2022-11-30T09:50:58.774Z,8.95
2022-11-30T09:51:58.786Z,8.95
2022-11-30T09:52:58.777Z,8.95
2022-11-30T09:53:58.763Z,8.97
2022-11-30T09:54:58.740Z,8.97
2022-11-30T09:55:58.771Z,8.99
2022-11-30T09:56:58.723Z,9.00
2022-11-30T09:57:58.748Z,9.00
2022-11-30T09:58:58.699Z,9.02
2022-11-30T09:59:58.734Z,9.02
2022-11-30T10:01:01.293Z,9.04
2022-11-30T10:01:58.703Z,9.08
2022-11-30T10:02:58.843Z,9.10
2022-11-30T10:03:58.695Z,9.11
2022-11-30T10:04:58.627Z,9.11
2022-11-30T10:05:58.651Z,9.13
2022-11-30T10:06:58.615Z,9.13
2022-11-30T10:07:58.947Z,9.13
2022-11-30T10:08:58.586Z,9.13
2022-11-30T10:10:23.620Z,9.10
2022-11-30T10:10:58.580Z,9.11
2022-11-30T10:11:58.622Z,9.14
2022-11-30T10:12:58.554Z,9.14
2022-11-30T10:13:58.551Z,9.18
2022-11-30T10:15:00.265Z,9.18
2022-11-30T10:15:58.602Z,9.16
2022-11-30T10:16:58.550Z,9.18
2022-11-30T10:17:58.511Z,9.16
2022-11-30T10:18:58.491Z,9.18
2022-11-30T10:19:58.492Z,9.16
2022-11-30T10:20:58.467Z,9.18
2022-11-30T10:21:58.472Z,9.16
2022-11-30T10:22:58.462Z,9.16
2022-11-30T10:23:58.443Z,9.18
2022-11-30T10:24:58.431Z,9.18
2022-11-30T10:25:58.427Z,9.18
2022-11-30T10:26:58.411Z,9.18
2022-11-30T10:28:04.664Z,9.18
2022-11-30T10:28:58.423Z,9.19
2022-11-30T10:29:58.395Z,9.18
2022-11-30T10:30:58.405Z,9.21
2022-11-30T10:31:58.369Z,9.22
2022-11-30T10:32:58.338Z,9.21
2022-11-30T10:33:58.378Z,9.19
2022-11-30T10:34:58.357Z,9.19
2022-11-30T10:35:58.367Z,9.19
2022-11-30T10:36:58.309Z,9.19
2022-11-30T10:37:58.319Z,9.18
2022-11-30T10:38:58.311Z,9.16
2022-11-30T10:39:58.304Z,9.16
2022-11-30T10:40:58.316Z,9.14
2022-11-30T10:41:58.336Z,9.14
2022-11-30T10:42:58.252Z,9.13
2022-11-30T10:43:58.244Z,9.13
2022-11-30T10:44:58.222Z,9.14
2022-11-30T10:45:58.252Z,9.13
2022-11-30T10:46:58.281Z,9.14
2022-11-30T10:47:58.209Z,9.14
2022-11-30T10:48:58.164Z,9.14
2022-11-30T10:49:58.205Z,9.14
2022-11-30T10:50:58.150Z,9.16
2022-11-30T10:51:58.169Z,9.14
2022-11-30T10:52:58.154Z,9.14
2022-11-30T10:53:58.182Z,9.16
2022-11-30T10:55:04.258Z,9.14
2022-11-30T10:55:58.090Z,9.16
2022-11-30T10:56:58.100Z,9.16
2022-11-30T10:57:58.090Z,9.14
2022-11-30T10:58:58.128Z,9.13
2022-11-30T10:59:58.047Z,9.13
2022-11-30T11:00:58.075Z,9.14
2022-11-30T11:01:58.099Z,9.13
2022-11-30T11:02:58.116Z,9.16
2022-11-30T11:03:58.231Z,9.14
2022-11-30T11:04:58.006Z,9.16
2022-11-30T11:05:57.986Z,9.14
2022-11-30T11:06:58.121Z,9.16
2022-11-30T11:08:04.481Z,9.16
2022-11-30T11:08:58.011Z,9.16
2022-11-30T11:09:57.969Z,9.18
2022-11-30T11:10:57.972Z,9.18
2022-11-30T11:11:57.920Z,9.19
2022-11-30T11:12:58.008Z,9.21
2022-11-30T11:13:57.909Z,9.19
2022-11-30T11:14:57.947Z,9.19
2022-11-30T11:15:57.947Z,9.19
2022-11-30T11:16:57.897Z,9.18
2022-11-30T11:17:57.883Z,9.16
2022-11-30T11:18:57.865Z,9.18
2022-11-30T11:19:57.838Z,9.18
2022-11-30T11:21:01.256Z,9.16
2022-11-30T11:21:57.861Z,9.16
2022-11-30T11:22:57.830Z,9.18
2022-11-30T11:23:57.792Z,9.19
2022-11-30T11:24:57.807Z,9.16
2022-11-30T11:25:57.782Z,9.19
2022-11-30T11:26:57.793Z,9.18
2022-11-30T11:27:57.791Z,9.19
2022-11-30T11:28:57.765Z,9.21
2022-11-30T11:29:57.741Z,9.19
2022-11-30T11:30:57.776Z,9.22
2022-11-30T11:31:57.745Z,9.19
2022-11-30T11:32:57.714Z,9.21
2022-11-30T11:33:57.699Z,9.22
2022-11-30T11:34:57.738Z,9.26
2022-11-30T11:35:57.681Z,9.26
2022-11-30T11:36:57.674Z,9.25
2022-11-30T11:37:57.656Z,9.25
2022-11-30T11:38:57.647Z,9.25
2022-11-30T11:39:57.640Z,9.25
2022-11-30T11:40:57.635Z,9.25
2022-11-30T11:41:57.624Z,9.25
2022-11-30T11:42:57.646Z,9.26
2022-11-30T11:43:57.610Z,9.28
2022-11-30T11:44:57.601Z,9.28
2022-11-30T11:45:57.671Z,9.28
2022-11-30T11:46:57.615Z,9.28
2022-11-30T11:47:57.537Z,9.28
2022-11-30T11:48:57.543Z,9.26
2022-11-30T11:49:57.528Z,9.28
2022-11-30T11:51:06.526Z,9.28
2022-11-30T11:51:57.574Z,9.31
2022-11-30T11:52:57.498Z,9.32
2022-11-30T11:53:57.549Z,9.31
2022-11-30T11:54:57.482Z,9.34
2022-11-30T11:55:57.468Z,9.36
2022-11-30T11:56:57.463Z,9.37
2022-11-30T11:57:57.462Z,9.39
2022-11-30T11:58:57.460Z,9.37
2022-11-30T11:59:57.436Z,9.43
2022-11-30T12:01:10.808Z,9.40
2022-11-30T12:01:57.424Z,9.40
2022-11-30T12:02:57.504Z,9.43
2022-11-30T12:03:57.451Z,9.43
2022-11-30T12:04:57.392Z,9.43
2022-11-30T12:05:57.353Z,9.44
2022-11-30T12:06:57.375Z,9.43
2022-11-30T12:07:57.414Z,9.44
2022-11-30T12:08:57.332Z,9.44
2022-11-30T12:09:57.344Z,9.43
2022-11-30T12:10:57.315Z,9.44
2022-11-30T12:11:57.297Z,9.44
2022-11-30T12:12:57.301Z,9.44
2022-11-30T12:13:57.282Z,9.48
2022-11-30T12:14:57.279Z,9.48
2022-11-30T12:15:57.319Z,9.48
2022-11-30T12:16:57.253Z,9.50
2022-11-30T12:17:57.252Z,9.54
2022-11-30T12:18:57.231Z,9.54
2022-11-30T12:19:57.204Z,9.55
2022-11-30T12:20:57.248Z,9.54
2022-11-30T12:21:57.185Z,9.56
2022-11-30T12:22:57.222Z,9.56
2022-11-30T12:23:57.166Z,9.58
2022-11-30T12:25:00.080Z,9.56
2022-11-30T12:25:57.195Z,9.56
2022-11-30T12:26:57.185Z,9.56
2022-11-30T12:27:57.115Z,9.56
2022-11-30T12:28:57.162Z,9.58
2022-11-30T12:29:57.095Z,9.58
2022-11-30T12:30:57.164Z,9.58
2022-11-30T12:31:57.108Z,9.59
2022-11-30T12:32:57.085Z,9.58
2022-11-30T12:33:57.060Z,9.58
2022-11-30T12:34:57.054Z,9.62
2022-11-30T12:35:57.093Z,9.62
2022-11-30T12:36:57.036Z,9.62
2022-11-30T12:37:57.040Z,9.61
2022-11-30T12:38:57.047Z,9.62
2022-11-30T12:39:57.004Z,9.62
2022-11-30T12:40:57.006Z,9.61
2022-11-30T12:41:56.970Z,9.61
2022-11-30T12:42:56.977Z,9.59
2022-11-30T12:43:56.945Z,9.61
2022-11-30T12:44:56.962Z,9.62
2022-11-30T12:45:56.970Z,9.61
2022-11-30T12:46:57.051Z,9.61
2022-11-30T12:47:56.954Z,9.61
2022-11-30T12:48:56.964Z,9.61
2022-11-30T12:49:56.910Z,9.61
2022-11-30T12:50:56.909Z,9.59
2022-11-30T12:51:56.907Z,9.59
2022-11-30T12:52:56.868Z,9.61
2022-11-30T12:53:56.852Z,9.59
2022-11-30T12:54:56.855Z,9.59
2022-11-30T12:55:56.832Z,9.58
2022-11-30T12:56:56.850Z,9.59
2022-11-30T12:57:56.944Z,9.58
2022-11-30T12:58:56.844Z,9.58
2022-11-30T12:59:56.773Z,9.56
2022-11-30T13:00:56.840Z,9.56
2022-11-30T13:01:56.845Z,9.56
2022-11-30T13:02:56.760Z,9.55
2022-11-30T13:03:56.745Z,9.55
2022-11-30T13:04:58.986Z,9.55
2022-11-30T13:05:56.742Z,9.55
2022-11-30T13:06:56.760Z,9.51
2022-11-30T13:07:56.735Z,9.55
2022-11-30T13:08:56.730Z,9.54
2022-11-30T13:09:56.677Z,9.50
2022-11-30T13:10:56.874Z,9.51
2022-11-30T13:11:56.648Z,9.50
2022-11-30T13:12:56.684Z,9.47
2022-11-30T13:13:56.659Z,9.48
2022-11-30T13:14:56.647Z,9.46
2022-11-30T13:15:56.650Z,9.47
2022-11-30T13:16:56.628Z,9.44
2022-11-30T13:17:56.587Z,9.44
2022-11-30T13:18:56.602Z,9.46
2022-11-30T13:19:56.606Z,9.44
2022-11-30T13:20:57.353Z,9.43
2022-11-30T13:21:56.538Z,9.44
2022-11-30T13:22:56.600Z,9.46
2022-11-30T13:23:56.557Z,9.44
2022-11-30T13:24:56.535Z,9.44
2022-11-30T13:26:11.983Z,9.44
2022-11-30T13:26:56.518Z,9.43
2022-11-30T13:27:58.213Z,9.41
2022-11-30T13:28:56.487Z,9.41
2022-11-30T13:29:56.456Z,9.41
2022-11-30T13:30:56.530Z,9.41
2022-11-30T13:31:56.597Z,9.40
2022-11-30T13:32:58.306Z,9.41
2022-11-30T13:33:56.418Z,9.43
2022-11-30T13:34:56.422Z,9.43
2022-11-30T13:35:56.400Z,9.43
2022-11-30T13:36:56.466Z,9.46
2022-11-30T13:38:20.317Z,9.46
2022-11-30T13:38:56.385Z,9.43
2022-11-30T13:39:56.353Z,9.44
2022-11-30T13:40:56.387Z,9.43
2022-11-30T13:41:56.329Z,9.43
2022-11-30T13:42:56.401Z,9.44
2022-11-30T13:43:56.309Z,9.43
2022-11-30T13:44:56.324Z,9.44
2022-11-30T13:45:56.286Z,9.44
2022-11-30T13:46:56.356Z,9.44
2022-11-30T13:47:56.289Z,9.44
2022-11-30T13:48:56.833Z,9.41
2022-11-30T13:49:56.240Z,9.43
2022-11-30T13:50:56.259Z,9.41
2022-11-30T13:52:21.370Z,9.41
2022-11-30T13:52:56.357Z,9.43
2022-11-30T13:54:12.064Z,9.40
2022-11-30T13:54:56.268Z,9.41
2022-11-30T13:55:56.195Z,9.37
2022-11-30T13:56:56.194Z,9.39
2022-11-30T13:57:56.171Z,9.39
2022-11-30T13:58:56.170Z,9.39
2022-11-30T13:59:56.190Z,9.37
2022-11-30T14:00:56.237Z,9.37
2022-11-30T14:01:56.252Z,9.36
2022-11-30T14:02:56.135Z,9.36
2022-11-30T14:03:56.117Z,9.37
2022-11-30T14:04:56.136Z,9.37
2022-11-30T14:05:56.128Z,9.37
2022-11-30T14:06:56.088Z,9.39
2022-11-30T14:07:56.143Z,9.39
2022-11-30T14:08:56.073Z,9.39
2022-11-30T14:09:56.037Z,9.39
2022-11-30T14:10:56.078Z,9.34
2022-11-30T14:11:56.016Z,9.37
2022-11-30T14:12:56.011Z,9.34
2022-11-30T14:13:55.990Z,9.37
2022-11-30T14:14:55.990Z,9.36
2022-11-30T14:15:56.054Z,9.39
2022-11-30T14:16:56.032Z,9.36
2022-11-30T14:17:55.948Z,9.37
2022-11-30T14:18:55.972Z,9.36
2022-11-30T14:19:55.929Z,9.36
2022-11-30T14:20:55.929Z,9.37
2022-11-30T14:21:55.935Z,9.39
2022-11-30T14:22:55.921Z,9.39
2022-11-30T14:23:55.912Z,9.39
2022-11-30T14:24:55.904Z,9.39
2022-11-30T14:25:55.863Z,9.37
2022-11-30T14:26:55.877Z,9.37
2022-11-30T14:27:55.913Z,9.36
2022-11-30T14:28:55.857Z,9.37
2022-11-30T14:29:55.837Z,9.39
2022-11-30T14:30:55.838Z,9.36
2022-11-30T14:31:55.891Z,9.37
2022-11-30T14:32:55.822Z,9.37
2022-11-30T14:33:55.806Z,9.40
2022-11-30T14:34:55.790Z,9.40
2022-11-30T14:35:55.763Z,9.40
2022-11-30T14:36:55.783Z,9.40
2022-11-30T14:37:55.766Z,9.39
2022-11-30T14:38:55.748Z,9.39
2022-11-30T14:39:55.726Z,9.37
2022-11-30T14:40:55.727Z,9.36
2022-11-30T14:41:55.688Z,9.37
2022-11-30T14:42:55.743Z,9.31
2022-11-30T14:43:55.667Z,9.32
2022-11-30T14:44:55.667Z,9.34
2022-11-30T14:45:58.076Z,9.31
2022-11-30T14:46:55.725Z,9.28
2022-11-30T14:47:55.655Z,9.28
2022-11-30T14:48:55.636Z,9.26
2022-11-30T14:49:55.606Z,9.23
2022-11-30T14:50:55.633Z,9.23
2022-11-30T14:51:55.589Z,9.22
2022-11-30T14:52:55.616Z,9.21
2022-11-30T14:53:55.604Z,9.21
2022-11-30T14:54:55.580Z,9.21
2022-11-30T14:55:55.547Z,9.22
2022-11-30T14:56:55.541Z,9.22
2022-11-30T14:57:55.551Z,9.19
2022-11-30T14:58:55.908Z,9.19
2022-11-30T14:59:55.523Z,9.22
2022-11-30T15:00:55.548Z,9.19
2022-11-30T15:01:55.516Z,9.18
2022-11-30T15:02:55.515Z,9.18
2022-11-30T15:03:55.468Z,9.18
2022-11-30T15:04:55.469Z,9.21
2022-11-30T15:05:55.610Z,9.21
2022-11-30T15:06:55.456Z,9.19
2022-11-30T15:07:55.510Z,9.21
2022-11-30T15:08:55.426Z,9.23
2022-11-30T15:09:55.449Z,9.21
2022-11-30T15:10:55.409Z,9.19
2022-11-30T15:11:55.413Z,9.19
2022-11-30T15:12:55.384Z,9.21
2022-11-30T15:13:55.386Z,9.19
2022-11-30T15:14:55.335Z,9.19
2022-11-30T15:15:55.384Z,9.19
2022-11-30T15:16:55.424Z,9.19
2022-11-30T15:17:55.321Z,9.19
2022-11-30T15:18:55.305Z,9.18
2022-11-30T15:19:55.307Z,9.14
2022-11-30T15:20:55.278Z,9.19
2022-11-30T15:21:55.288Z,9.18
2022-11-30T15:22:55.270Z,9.18
2022-11-30T15:23:55.384Z,9.16
2022-11-30T15:24:55.240Z,9.13
2022-11-30T15:25:55.243Z,9.14
2022-11-30T15:26:55.229Z,9.16
2022-11-30T15:27:55.216Z,9.16
2022-11-30T15:28:55.204Z,9.16
2022-11-30T15:29:55.202Z,9.13
2022-11-30T15:30:55.254Z,9.14
2022-11-30T15:31:55.281Z,9.16
2022-11-30T15:32:55.186Z,9.14
2022-11-30T15:33:55.156Z,9.11
2022-11-30T15:34:57.026Z,9.13
2022-11-30T15:36:18.880Z,9.14
2022-11-30T15:36:55.127Z,9.11
2022-11-30T15:37:55.121Z,9.13
2022-11-30T15:38:55.130Z,9.16
2022-11-30T15:39:55.131Z,9.14
2022-11-30T15:40:58.025Z,9.13
2022-11-30T15:41:55.072Z,9.13
2022-11-30T15:42:55.069Z,9.14
2022-11-30T15:43:55.124Z,9.13
2022-11-30T15:44:55.045Z,9.13
2022-11-30T15:45:55.143Z,9.11
2022-11-30T15:46:55.001Z,9.10
2022-11-30T15:47:55.028Z,9.11
2022-11-30T15:48:54.987Z,9.11
2022-11-30T15:49:55.056Z,9.10
2022-11-30T15:50:55.043Z,9.08
2022-11-30T15:51:57.576Z,9.11
2022-11-30T15:52:54.992Z,9.10
2022-11-30T15:53:55.023Z,9.08
2022-11-30T15:54:55.010Z,9.08
2022-11-30T15:55:54.971Z,9.04
2022-11-30T15:56:55.066Z,9.03
2022-11-30T15:57:54.982Z,9.03
2022-11-30T15:58:54.927Z,9.03
2022-11-30T15:59:54.921Z,9.02
2022-11-30T16:00:55.051Z,9.03
2022-11-30T16:01:54.996Z,9.02
2022-11-30T16:02:54.940Z,9.02
2022-11-30T16:03:54.900Z,9.02
2022-11-30T16:04:54.868Z,9.03
2022-11-30T16:05:54.881Z,9.02
2022-11-30T16:06:54.862Z,9.02
2022-11-30T16:07:54.915Z,9.02
2022-11-30T16:08:54.842Z,9.00
2022-11-30T16:09:54.829Z,9.00
2022-11-30T16:10:54.842Z,8.97
2022-11-30T16:11:54.796Z,8.97
2022-11-30T16:12:54.835Z,9.00
2022-11-30T16:13:54.788Z,8.97
2022-11-30T16:14:54.775Z,8.99
2022-11-30T16:15:54.762Z,9.00
2022-11-30T16:16:54.804Z,8.99
2022-11-30T16:17:54.767Z,8.97
2022-11-30T16:18:54.728Z,8.97
2022-11-30T16:19:54.736Z,8.95
2022-11-30T16:20:54.731Z,8.94
2022-11-30T16:21:54.695Z,8.97
2022-11-30T16:22:54.688Z,8.95
2022-11-30T16:23:54.720Z,8.95
2022-11-30T16:24:54.656Z,8.97
2022-11-30T16:25:54.699Z,8.95
2022-11-30T16:26:54.780Z,8.94
2022-11-30T16:27:54.633Z,8.94
2022-11-30T16:28:54.634Z,8.92
2022-11-30T16:29:55.029Z,8.92
2022-11-30T16:30:54.596Z,8.91
2022-11-30T16:31:54.699Z,8.91
2022-11-30T16:32:54.567Z,8.92
2022-11-30T16:33:54.580Z,8.89
2022-11-30T16:34:54.563Z,8.89
2022-11-30T16:35:54.613Z,8.85
2022-11-30T16:36:54.543Z,8.84
2022-11-30T16:37:54.531Z,8.84
2022-11-30T16:38:54.511Z,8.84
2022-11-30T16:39:54.512Z,8.81
2022-11-30T16:40:54.489Z,8.81
2022-11-30T16:41:54.994Z,8.79
2022-11-30T16:42:54.463Z,8.79
2022-11-30T16:43:54.482Z,8.79
2022-11-30T16:44:54.451Z,8.79
2022-11-30T16:45:54.571Z,8.79
2022-11-30T16:46:54.447Z,8.82
2022-11-30T16:47:54.426Z,8.82
2022-11-30T16:48:54.419Z,8.79
2022-11-30T16:49:54.412Z,8.79
2022-11-30T16:50:54.385Z,8.78
2022-11-30T16:51:54.384Z,8.78
2022-11-30T16:52:54.461Z,8.79
2022-11-30T16:53:54.364Z,8.78
2022-11-30T16:54:54.370Z,8.78
2022-11-30T16:55:54.341Z,8.79
2022-11-30T16:56:54.340Z,8.79
2022-11-30T16:57:54.337Z,8.76
2022-11-30T16:58:54.366Z,8.74
2022-11-30T16:59:54.316Z,8.76
2022-11-30T17:00:54.337Z,8.78
2022-11-30T17:01:54.425Z,8.73
2022-11-30T17:02:54.386Z,8.73
2022-11-30T17:03:54.252Z,8.73
2022-11-30T17:04:54.411Z,8.71
2022-11-30T17:05:54.236Z,8.73
2022-11-30T17:07:00.471Z,8.73
2022-11-30T17:07:54.290Z,8.73
2022-11-30T17:08:54.218Z,8.71
2022-11-30T17:09:54.214Z,8.73
2022-11-30T17:10:54.530Z,8.73
2022-11-30T17:11:54.179Z,8.73
2022-11-30T17:12:54.145Z,8.71
2022-11-30T17:13:54.155Z,8.73
2022-11-30T17:14:54.189Z,8.73
2022-11-30T17:15:54.158Z,8.74
2022-11-30T17:16:54.217Z,8.73
2022-11-30T17:17:54.111Z,8.74
2022-11-30T17:18:54.095Z,8.73